sensor_id;sensor_type;location;lat;lon;timestamp;P1;durP1;ratioP1;P2;durP2;ratioP2
6017;SDS011;3037;51.068;13.780;2022-12-19T00:01:05;39.43;;;19.63;;
6017;SDS011;3037;51.068;13.780;2022-12-19T00:03:40;42.87;;;22.00;;
6017;SDS011;3037;51.068;13.780;2022-12-19T00:06:09;47.40;;;21.03;;
6017;SDS011;3037;51.068;13.780;2022-12-19T00:08:34;40.80;;;19.03;;
6017;SDS011;3037;51.068;13.780;2022-12-19T00:11:00;43.07;;;19.00;;
6017;SDS011;3037;51.068;13.780;2022-12-19T00:13:27;45.57;;;21.60;;
6017;SDS011;3037;51.068;13.780;2022-12-19T00:15:54;41.23;;;20.87;;
6017;SDS011;3037;51.068;13.780;2022-12-19T00:18:23;42.00;;;20.97;;
6017;SDS011;3037;51.068;13.780;2022-12-19T00:20:53;37.20;;;19.60;;
6017;SDS011;3037;51.068;13.780;2022-12-19T00:23:29;40.53;;;21.13;;
6017;SDS011;3037;51.068;13.780;2022-12-19T00:26:10;42.20;;;22.50;;
6017;SDS011;3037;51.068;13.780;2022-12-19T00:28:51;41.77;;;19.70;;
6017;SDS011;3037;51.068;13.780;2022-12-19T00:31:18;43.40;;;19.67;;
6017;SDS011;3037;51.068;13.780;2022-12-19T00:33:45;43.07;;;20.23;;
6017;SDS011;3037;51.068;13.780;2022-12-19T00:36:18;36.13;;;19.77;;
6017;SDS011;3037;51.068;13.780;2022-12-19T00:38:49;44.17;;;21.87;;
6017;SDS011;3037;51.068;13.780;2022-12-19T00:41:16;45.27;;;19.90;;
6017;SDS011;3037;51.068;13.780;2022-12-19T00:43:50;31.67;;;19.23;;
6017;SDS011;3037;51.068;13.780;2022-12-19T00:46:17;44.67;;;21.20;;
6017;SDS011;3037;51.068;13.780;2022-12-19T00:48:43;37.90;;;19.70;;
6017;SDS011;3037;51.068;13.780;2022-12-19T00:51:10;39.87;;;19.37;;
6017;SDS011;3037;51.068;13.780;2022-12-19T00:53:39;34.83;;;18.50;;
6017;SDS011;3037;51.068;13.780;2022-12-19T00:56:13;42.00;;;22.13;;
6017;SDS011;3037;51.068;13.780;2022-12-19T00:58:43;42.73;;;21.70;;
6017;SDS011;3037;51.068;13.780;2022-12-19T01:01:12;47.83;;;19.43;;
6017;SDS011;3037;51.068;13.780;2022-12-19T01:03:40;38.27;;;18.90;;
6017;SDS011;3037;51.068;13.780;2022-12-19T01:06:06;40.57;;;20.03;;
6017;SDS011;3037;51.068;13.780;2022-12-19T01:08:32;49.77;;;22.60;;
6017;SDS011;3037;51.068;13.780;2022-12-19T01:10:57;40.83;;;17.77;;
6017;SDS011;3037;51.068;13.780;2022-12-19T01:13:24;37.20;;;19.93;;
6017;SDS011;3037;51.068;13.780;2022-12-19T01:15:52;32.70;;;18.03;;
6017;SDS011;3037;51.068;13.780;2022-12-19T01:18:17;47.23;;;19.33;;
6017;SDS011;3037;51.068;13.780;2022-12-19T01:20:43;46.20;;;20.43;;
6017;SDS011;3037;51.068;13.780;2022-12-19T01:23:11;39.53;;;19.67;;
6017;SDS011;3037;51.068;13.780;2022-12-19T01:25:37;36.63;;;19.10;;
6017;SDS011;3037;51.068;13.780;2022-12-19T01:28:04;42.70;;;19.40;;
6017;SDS011;3037;51.068;13.780;2022-12-19T01:30:30;42.33;;;21.43;;
6017;SDS011;3037;51.068;13.780;2022-12-19T01:32:56;42.90;;;19.67;;
6017;SDS011;3037;51.068;13.780;2022-12-19T01:35:23;46.70;;;20.13;;
6017;SDS011;3037;51.068;13.780;2022-12-19T01:37:49;35.40;;;19.03;;
6017;SDS011;3037;51.068;13.780;2022-12-19T01:40:16;39.07;;;18.90;;
6017;SDS011;3037;51.068;13.780;2022-12-19T01:42:42;31.80;;;16.63;;
6017;SDS011;3037;51.068;13.780;2022-12-19T01:47:40;37.97;;;18.47;;
6017;SDS011;3037;51.068;13.780;2022-12-19T01:50:18;38.10;;;17.90;;
6017;SDS011;3037;51.068;13.780;2022-12-19T01:52:50;38.90;;;18.83;;
6017;SDS011;3037;51.068;13.780;2022-12-19T01:55:17;40.70;;;19.27;;
6017;SDS011;3037;51.068;13.780;2022-12-19T01:57:44;36.60;;;16.07;;
6017;SDS011;3037;51.068;13.780;2022-12-19T02:00:10;43.10;;;17.50;;
6017;SDS011;3037;51.068;13.780;2022-12-19T02:02:37;35.47;;;17.47;;
6017;SDS011;3037;51.068;13.780;2022-12-19T02:05:07;34.93;;;18.03;;
6017;SDS011;3037;51.068;13.780;2022-12-19T02:07:33;34.00;;;15.77;;
6017;SDS011;3037;51.068;13.780;2022-12-19T02:09:59;32.40;;;16.73;;
6017;SDS011;3037;51.068;13.780;2022-12-19T02:12:25;34.20;;;15.40;;
6017;SDS011;3037;51.068;13.780;2022-12-19T02:14:55;31.07;;;16.67;;
6017;SDS011;3037;51.068;13.780;2022-12-19T02:17:59;25.87;;;14.47;;
6017;SDS011;3037;51.068;13.780;2022-12-19T02:23:38;35.37;;;17.30;;
6017;SDS011;3037;51.068;13.780;2022-12-19T02:32:16;32.20;;;17.10;;
6017;SDS011;3037;51.068;13.780;2022-12-19T02:37:37;29.00;;;14.73;;
6017;SDS011;3037;51.068;13.780;2022-12-19T02:40:20;33.10;;;15.00;;
6017;SDS011;3037;51.068;13.780;2022-12-19T02:42:52;27.70;;;13.53;;
6017;SDS011;3037;51.068;13.780;2022-12-19T02:45:22;30.90;;;15.63;;
6017;SDS011;3037;51.068;13.780;2022-12-19T02:47:51;34.77;;;15.63;;
6017;SDS011;3037;51.068;13.780;2022-12-19T02:50:18;27.50;;;14.10;;
6017;SDS011;3037;51.068;13.780;2022-12-19T02:52:45;34.67;;;16.17;;
6017;SDS011;3037;51.068;13.780;2022-12-19T02:55:13;34.73;;;17.63;;
6017;SDS011;3037;51.068;13.780;2022-12-19T03:00:28;28.33;;;15.63;;
6017;SDS011;3037;51.068;13.780;2022-12-19T03:05:40;34.50;;;17.30;;
6017;SDS011;3037;51.068;13.780;2022-12-19T03:11:06;36.00;;;17.57;;
6017;SDS011;3037;51.068;13.780;2022-12-19T03:13:39;35.70;;;18.00;;
6017;SDS011;3037;51.068;13.780;2022-12-19T03:16:19;41.67;;;16.73;;
6017;SDS011;3037;51.068;13.780;2022-12-19T03:18:45;35.10;;;17.93;;
6017;SDS011;3037;51.068;13.780;2022-12-19T03:21:14;41.30;;;18.07;;
6017;SDS011;3037;51.068;13.780;2022-12-19T03:23:47;33.33;;;17.07;;
6017;SDS011;3037;51.068;13.780;2022-12-19T03:26:17;31.77;;;14.20;;
6017;SDS011;3037;51.068;13.780;2022-12-19T03:28:52;35.80;;;17.27;;
6017;SDS011;3037;51.068;13.780;2022-12-19T03:31:41;38.23;;;15.77;;
6017;SDS011;3037;51.068;13.780;2022-12-19T03:34:20;35.70;;;16.40;;
6017;SDS011;3037;51.068;13.780;2022-12-19T03:36:51;39.30;;;17.10;;
6017;SDS011;3037;51.068;13.780;2022-12-19T03:39:24;41.83;;;17.77;;
6017;SDS011;3037;51.068;13.780;2022-12-19T03:41:50;34.27;;;17.93;;
6017;SDS011;3037;51.068;13.780;2022-12-19T03:44:36;37.20;;;17.20;;
6017;SDS011;3037;51.068;13.780;2022-12-19T03:47:05;36.67;;;18.30;;
6017;SDS011;3037;51.068;13.780;2022-12-19T03:50:02;40.43;;;18.70;;
6017;SDS011;3037;51.068;13.780;2022-12-19T03:55:15;36.37;;;17.43;;
6017;SDS011;3037;51.068;13.780;2022-12-19T03:57:50;36.17;;;17.43;;
6017;SDS011;3037;51.068;13.780;2022-12-19T04:00:20;31.20;;;15.30;;
6017;SDS011;3037;51.068;13.780;2022-12-19T04:02:48;38.63;;;16.80;;
6017;SDS011;3037;51.068;13.780;2022-12-19T04:05:18;36.73;;;18.70;;
6017;SDS011;3037;51.068;13.780;2022-12-19T04:07:47;37.43;;;16.23;;
6017;SDS011;3037;51.068;13.780;2022-12-19T04:10:15;36.93;;;16.60;;
6017;SDS011;3037;51.068;13.780;2022-12-19T04:12:45;43.97;;;19.37;;
6017;SDS011;3037;51.068;13.780;2022-12-19T04:15:14;50.13;;;20.40;;
6017;SDS011;3037;51.068;13.780;2022-12-19T04:20:21;44.43;;;20.00;;
6017;SDS011;3037;51.068;13.780;2022-12-19T04:22:55;43.30;;;21.10;;
6017;SDS011;3037;51.068;13.780;2022-12-19T04:25:28;46.47;;;20.23;;
6017;SDS011;3037;51.068;13.780;2022-12-19T04:28:02;45.13;;;19.40;;
6017;SDS011;3037;51.068;13.780;2022-12-19T04:30:30;45.13;;;19.00;;
6017;SDS011;3037;51.068;13.780;2022-12-19T04:32:58;50.27;;;18.40;;
6017;SDS011;3037;51.068;13.780;2022-12-19T04:35:23;41.23;;;19.10;;
6017;SDS011;3037;51.068;13.780;2022-12-19T04:37:50;38.77;;;19.73;;
6017;SDS011;3037;51.068;13.780;2022-12-19T04:40:16;52.77;;;21.00;;
6017;SDS011;3037;51.068;13.780;2022-12-19T04:42:41;45.90;;;21.07;;
6017;SDS011;3037;51.068;13.780;2022-12-19T04:45:07;47.90;;;19.93;;
6017;SDS011;3037;51.068;13.780;2022-12-19T04:47:33;47.37;;;20.70;;
6017;SDS011;3037;51.068;13.780;2022-12-19T04:49:59;41.23;;;19.07;;
6017;SDS011;3037;51.068;13.780;2022-12-19T04:52:24;44.37;;;20.00;;
6017;SDS011;3037;51.068;13.780;2022-12-19T04:54:50;50.50;;;23.10;;
6017;SDS011;3037;51.068;13.780;2022-12-19T04:57:15;38.20;;;18.93;;
6017;SDS011;3037;51.068;13.780;2022-12-19T04:59:41;49.60;;;19.00;;
6017;SDS011;3037;51.068;13.780;2022-12-19T05:02:07;39.53;;;18.20;;
6017;SDS011;3037;51.068;13.780;2022-12-19T05:04:32;41.17;;;19.27;;
6017;SDS011;3037;51.068;13.780;2022-12-19T05:06:58;39.00;;;18.87;;
6017;SDS011;3037;51.068;13.780;2022-12-19T05:09:24;45.23;;;20.70;;
6017;SDS011;3037;51.068;13.780;2022-12-19T05:11:49;47.10;;;21.07;;
6017;SDS011;3037;51.068;13.780;2022-12-19T05:14:15;46.00;;;21.13;;
6017;SDS011;3037;51.068;13.780;2022-12-19T05:16:41;44.37;;;19.60;;
6017;SDS011;3037;51.068;13.780;2022-12-19T05:19:06;44.67;;;21.97;;
6017;SDS011;3037;51.068;13.780;2022-12-19T05:21:32;54.30;;;21.03;;
6017;SDS011;3037;51.068;13.780;2022-12-19T05:23:57;43.37;;;20.60;;
6017;SDS011;3037;51.068;13.780;2022-12-19T05:26:23;41.70;;;19.87;;
6017;SDS011;3037;51.068;13.780;2022-12-19T05:28:48;44.83;;;17.87;;
6017;SDS011;3037;51.068;13.780;2022-12-19T05:31:18;43.73;;;23.17;;
6017;SDS011;3037;51.068;13.780;2022-12-19T05:33:46;45.30;;;21.60;;
6017;SDS011;3037;51.068;13.780;2022-12-19T05:36:13;46.07;;;19.00;;
6017;SDS011;3037;51.068;13.780;2022-12-19T05:38:40;43.73;;;18.70;;
6017;SDS011;3037;51.068;13.780;2022-12-19T05:41:09;52.67;;;20.90;;
6017;SDS011;3037;51.068;13.780;2022-12-19T05:43:37;40.50;;;20.70;;
6017;SDS011;3037;51.068;13.780;2022-12-19T05:46:03;41.73;;;18.67;;
6017;SDS011;3037;51.068;13.780;2022-12-19T05:48:30;50.43;;;24.07;;
6017;SDS011;3037;51.068;13.780;2022-12-19T05:50:55;43.20;;;20.20;;
6017;SDS011;3037;51.068;13.780;2022-12-19T05:53:22;34.57;;;19.80;;
6017;SDS011;3037;51.068;13.780;2022-12-19T05:55:48;53.17;;;23.00;;
6017;SDS011;3037;51.068;13.780;2022-12-19T05:58:14;46.07;;;21.63;;
6017;SDS011;3037;51.068;13.780;2022-12-19T06:00:43;49.63;;;20.90;;
6017;SDS011;3037;51.068;13.780;2022-12-19T06:03:08;46.93;;;19.60;;
6017;SDS011;3037;51.068;13.780;2022-12-19T06:05:37;49.70;;;24.00;;
6017;SDS011;3037;51.068;13.780;2022-12-19T06:08:03;56.63;;;22.67;;
6017;SDS011;3037;51.068;13.780;2022-12-19T06:10:29;43.13;;;21.50;;
6017;SDS011;3037;51.068;13.780;2022-12-19T06:12:54;50.80;;;21.00;;
6017;SDS011;3037;51.068;13.780;2022-12-19T06:15:20;50.83;;;21.33;;
6017;SDS011;3037;51.068;13.780;2022-12-19T06:17:45;50.10;;;21.77;;
6017;SDS011;3037;51.068;13.780;2022-12-19T06:20:11;48.40;;;22.50;;
6017;SDS011;3037;51.068;13.780;2022-12-19T06:22:36;47.00;;;21.40;;
6017;SDS011;3037;51.068;13.780;2022-12-19T06:25:02;58.00;;;23.10;;
6017;SDS011;3037;51.068;13.780;2022-12-19T06:27:28;58.50;;;22.80;;
6017;SDS011;3037;51.068;13.780;2022-12-19T06:29:53;59.03;;;26.43;;
6017;SDS011;3037;51.068;13.780;2022-12-19T06:32:19;49.50;;;22.20;;
6017;SDS011;3037;51.068;13.780;2022-12-19T06:34:44;56.23;;;22.80;;
6017;SDS011;3037;51.068;13.780;2022-12-19T06:37:10;51.53;;;21.23;;
6017;SDS011;3037;51.068;13.780;2022-12-19T06:39:36;42.63;;;20.13;;
6017;SDS011;3037;51.068;13.780;2022-12-19T06:42:02;56.40;;;22.80;;
6017;SDS011;3037;51.068;13.780;2022-12-19T06:44:46;56.30;;;23.00;;
6017;SDS011;3037;51.068;13.780;2022-12-19T06:47:11;70.73;;;25.30;;
6017;SDS011;3037;51.068;13.780;2022-12-19T06:49:37;58.80;;;24.47;;
6017;SDS011;3037;51.068;13.780;2022-12-19T06:52:02;56.60;;;24.60;;
6017;SDS011;3037;51.068;13.780;2022-12-19T06:54:28;45.47;;;22.63;;
6017;SDS011;3037;51.068;13.780;2022-12-19T06:56:53;59.73;;;23.83;;
6017;SDS011;3037;51.068;13.780;2022-12-19T06:59:19;51.90;;;22.50;;
6017;SDS011;3037;51.068;13.780;2022-12-19T07:01:50;50.63;;;23.00;;
6017;SDS011;3037;51.068;13.780;2022-12-19T07:04:24;54.40;;;24.73;;
6017;SDS011;3037;51.068;13.780;2022-12-19T07:06:53;50.60;;;22.07;;
6017;SDS011;3037;51.068;13.780;2022-12-19T07:09:19;61.03;;;24.67;;
6017;SDS011;3037;51.068;13.780;2022-12-19T07:11:46;62.17;;;26.70;;
6017;SDS011;3037;51.068;13.780;2022-12-19T07:14:11;55.83;;;27.80;;
6017;SDS011;3037;51.068;13.780;2022-12-19T07:16:37;52.27;;;23.60;;
6017;SDS011;3037;51.068;13.780;2022-12-19T07:19:03;51.13;;;23.10;;
6017;SDS011;3037;51.068;13.780;2022-12-19T07:21:29;41.83;;;22.07;;
6017;SDS011;3037;51.068;13.780;2022-12-19T07:23:55;56.17;;;25.53;;
6017;SDS011;3037;51.068;13.780;2022-12-19T07:26:21;51.80;;;24.37;;
6017;SDS011;3037;51.068;13.780;2022-12-19T07:28:47;63.37;;;24.97;;
6017;SDS011;3037;51.068;13.780;2022-12-19T07:31:12;51.60;;;24.23;;
6017;SDS011;3037;51.068;13.780;2022-12-19T07:33:38;57.87;;;23.97;;
6017;SDS011;3037;51.068;13.780;2022-12-19T07:36:03;54.77;;;25.43;;
6017;SDS011;3037;51.068;13.780;2022-12-19T07:38:29;52.93;;;25.30;;
6017;SDS011;3037;51.068;13.780;2022-12-19T07:40:55;48.57;;;23.17;;
6017;SDS011;3037;51.068;13.780;2022-12-19T07:43:24;47.70;;;23.53;;
6017;SDS011;3037;51.068;13.780;2022-12-19T07:45:52;45.70;;;21.47;;
6017;SDS011;3037;51.068;13.780;2022-12-19T07:48:19;48.30;;;22.70;;
6017;SDS011;3037;51.068;13.780;2022-12-19T07:50:44;52.77;;;22.30;;
6017;SDS011;3037;51.068;13.780;2022-12-19T07:53:11;54.90;;;23.23;;
6017;SDS011;3037;51.068;13.780;2022-12-19T07:55:37;55.00;;;23.40;;
6017;SDS011;3037;51.068;13.780;2022-12-19T07:58:02;51.83;;;21.80;;
6017;SDS011;3037;51.068;13.780;2022-12-19T08:00:28;53.53;;;22.63;;
6017;SDS011;3037;51.068;13.780;2022-12-19T08:02:55;51.07;;;23.70;;
6017;SDS011;3037;51.068;13.780;2022-12-19T08:05:22;49.03;;;23.67;;
6017;SDS011;3037;51.068;13.780;2022-12-19T08:07:47;53.73;;;25.00;;
6017;SDS011;3037;51.068;13.780;2022-12-19T08:10:13;48.17;;;20.70;;
6017;SDS011;3037;51.068;13.780;2022-12-19T08:12:39;46.83;;;21.57;;
6017;SDS011;3037;51.068;13.780;2022-12-19T08:15:05;56.07;;;24.87;;
6017;SDS011;3037;51.068;13.780;2022-12-19T08:17:31;48.27;;;21.80;;
6017;SDS011;3037;51.068;13.780;2022-12-19T08:19:57;46.40;;;24.10;;
6017;SDS011;3037;51.068;13.780;2022-12-19T08:22:23;57.13;;;24.40;;
6017;SDS011;3037;51.068;13.780;2022-12-19T08:24:48;50.53;;;22.87;;
6017;SDS011;3037;51.068;13.780;2022-12-19T08:27:15;53.90;;;26.20;;
6017;SDS011;3037;51.068;13.780;2022-12-19T08:29:40;57.13;;;24.27;;
6017;SDS011;3037;51.068;13.780;2022-12-19T08:32:06;57.00;;;24.53;;
6017;SDS011;3037;51.068;13.780;2022-12-19T08:34:32;48.73;;;21.17;;
6017;SDS011;3037;51.068;13.780;2022-12-19T08:36:57;61.70;;;25.40;;
6017;SDS011;3037;51.068;13.780;2022-12-19T08:39:23;48.50;;;21.83;;
6017;SDS011;3037;51.068;13.780;2022-12-19T08:41:48;50.23;;;25.20;;
6017;SDS011;3037;51.068;13.780;2022-12-19T08:44:14;60.43;;;25.47;;
6017;SDS011;3037;51.068;13.780;2022-12-19T08:46:40;50.47;;;22.67;;
6017;SDS011;3037;51.068;13.780;2022-12-19T08:49:05;53.83;;;24.73;;
6017;SDS011;3037;51.068;13.780;2022-12-19T08:51:31;50.23;;;24.60;;
6017;SDS011;3037;51.068;13.780;2022-12-19T08:53:56;57.07;;;23.80;;
6017;SDS011;3037;51.068;13.780;2022-12-19T08:56:22;55.00;;;24.03;;
6017;SDS011;3037;51.068;13.780;2022-12-19T08:58:49;47.83;;;23.17;;
6017;SDS011;3037;51.068;13.780;2022-12-19T09:01:16;48.50;;;23.00;;
6017;SDS011;3037;51.068;13.780;2022-12-19T09:03:43;63.20;;;25.80;;
6017;SDS011;3037;51.068;13.780;2022-12-19T09:06:10;59.97;;;25.37;;
6017;SDS011;3037;51.068;13.780;2022-12-19T09:08:39;56.27;;;24.83;;
6017;SDS011;3037;51.068;13.780;2022-12-19T09:13:35;55.33;;;25.33;;
6017;SDS011;3037;51.068;13.780;2022-12-19T09:16:03;56.33;;;24.70;;
6017;SDS011;3037;51.068;13.780;2022-12-19T09:18:40;61.77;;;24.67;;
6017;SDS011;3037;51.068;13.780;2022-12-19T09:21:08;56.90;;;25.20;;
6017;SDS011;3037;51.068;13.780;2022-12-19T09:23:34;58.63;;;26.57;;
6017;SDS011;3037;51.068;13.780;2022-12-19T09:26:07;57.03;;;26.30;;
6017;SDS011;3037;51.068;13.780;2022-12-19T09:28:35;68.43;;;24.60;;
6017;SDS011;3037;51.068;13.780;2022-12-19T09:31:03;50.83;;;25.77;;
6017;SDS011;3037;51.068;13.780;2022-12-19T09:33:31;56.30;;;25.43;;
6017;SDS011;3037;51.068;13.780;2022-12-19T09:35:59;53.47;;;25.43;;
6017;SDS011;3037;51.068;13.780;2022-12-19T09:38:26;53.37;;;25.33;;
6017;SDS011;3037;51.068;13.780;2022-12-19T09:49:18;54.90;;;23.87;;
6017;SDS011;3037;51.068;13.780;2022-12-19T09:52:09;45.43;;;21.77;;
6017;SDS011;3037;51.068;13.780;2022-12-19T09:57:29;55.30;;;24.73;;
6017;SDS011;3037;51.068;13.780;2022-12-19T10:00:20;55.33;;;24.10;;
6017;SDS011;3037;51.068;13.780;2022-12-19T10:02:54;50.87;;;23.40;;
6017;SDS011;3037;51.068;13.780;2022-12-19T10:07:58;53.13;;;25.70;;
6017;SDS011;3037;51.068;13.780;2022-12-19T10:10:35;44.90;;;23.30;;
6017;SDS011;3037;51.068;13.780;2022-12-19T10:16:03;56.03;;;27.53;;
6017;SDS011;3037;51.068;13.780;2022-12-19T10:21:36;53.67;;;25.13;;
6017;SDS011;3037;51.068;13.780;2022-12-19T10:35:00;50.40;;;24.93;;
6017;SDS011;3037;51.068;13.780;2022-12-19T10:37:27;49.60;;;24.27;;
6017;SDS011;3037;51.068;13.780;2022-12-19T10:40:10;61.30;;;25.37;;
6017;SDS011;3037;51.068;13.780;2022-12-19T10:45:34;53.77;;;23.93;;
6017;SDS011;3037;51.068;13.780;2022-12-19T10:48:07;49.50;;;25.33;;
6017;SDS011;3037;51.068;13.780;2022-12-19T10:50:39;52.93;;;26.07;;
6017;SDS011;3037;51.068;13.780;2022-12-19T10:58:18;60.10;;;24.60;;
6017;SDS011;3037;51.068;13.780;2022-12-19T11:03:21;51.50;;;27.63;;
6017;SDS011;3037;51.068;13.780;2022-12-19T11:05:48;50.57;;;24.83;;
6017;SDS011;3037;51.068;13.780;2022-12-19T11:08:17;59.10;;;25.80;;
6017;SDS011;3037;51.068;13.780;2022-12-19T11:10:50;58.43;;;25.53;;
6017;SDS011;3037;51.068;13.780;2022-12-19T11:13:24;65.53;;;30.17;;
6017;SDS011;3037;51.068;13.780;2022-12-19T11:15:54;51.50;;;25.97;;
6017;SDS011;3037;51.068;13.780;2022-12-19T11:18:21;58.87;;;27.30;;
6017;SDS011;3037;51.068;13.780;2022-12-19T11:20:55;58.83;;;26.03;;
6017;SDS011;3037;51.068;13.780;2022-12-19T11:23:24;61.10;;;25.63;;
6017;SDS011;3037;51.068;13.780;2022-12-19T11:25:55;54.70;;;24.50;;
6017;SDS011;3037;51.068;13.780;2022-12-19T11:28:33;54.57;;;25.00;;
6017;SDS011;3037;51.068;13.780;2022-12-19T11:31:10;53.00;;;25.80;;
6017;SDS011;3037;51.068;13.780;2022-12-19T11:33:45;48.50;;;25.20;;
6017;SDS011;3037;51.068;13.780;2022-12-19T11:36:36;61.90;;;26.40;;
6017;SDS011;3037;51.068;13.780;2022-12-19T11:39:11;54.07;;;25.00;;
6017;SDS011;3037;51.068;13.780;2022-12-19T11:42:28;53.10;;;26.57;;
6017;SDS011;3037;51.068;13.780;2022-12-19T11:49:38;62.17;;;28.63;;
6017;SDS011;3037;51.068;13.780;2022-12-19T11:52:22;55.63;;;25.20;;
6017;SDS011;3037;51.068;13.780;2022-12-19T11:55:18;59.67;;;28.73;;
6017;SDS011;3037;51.068;13.780;2022-12-19T11:57:56;58.67;;;24.20;;
6017;SDS011;3037;51.068;13.780;2022-12-19T12:00:23;65.40;;;28.00;;
6017;SDS011;3037;51.068;13.780;2022-12-19T12:05:45;58.93;;;27.37;;
6017;SDS011;3037;51.068;13.780;2022-12-19T12:11:00;62.97;;;28.07;;
6017;SDS011;3037;51.068;13.780;2022-12-19T12:13:41;54.77;;;25.47;;
6017;SDS011;3037;51.068;13.780;2022-12-19T12:16:16;47.83;;;25.93;;
6017;SDS011;3037;51.068;13.780;2022-12-19T12:21:21;59.57;;;26.70;;
6017;SDS011;3037;51.068;13.780;2022-12-19T12:24:09;56.30;;;25.20;;
6017;SDS011;3037;51.068;13.780;2022-12-19T12:26:41;64.17;;;25.23;;
6017;SDS011;3037;51.068;13.780;2022-12-19T12:29:30;50.80;;;24.30;;
6017;SDS011;3037;51.068;13.780;2022-12-19T12:32:40;62.53;;;25.10;;
6017;SDS011;3037;51.068;13.780;2022-12-19T12:35:34;53.80;;;26.13;;
6017;SDS011;3037;51.068;13.780;2022-12-19T12:38:08;57.27;;;27.03;;
6017;SDS011;3037;51.068;13.780;2022-12-19T12:43:38;57.37;;;25.73;;
6017;SDS011;3037;51.068;13.780;2022-12-19T12:46:39;57.50;;;24.23;;
6017;SDS011;3037;51.068;13.780;2022-12-19T12:51:41;50.47;;;24.40;;
6017;SDS011;3037;51.068;13.780;2022-12-19T12:54:09;60.23;;;26.20;;
6017;SDS011;3037;51.068;13.780;2022-12-19T12:56:38;48.00;;;24.23;;
6017;SDS011;3037;51.068;13.780;2022-12-19T12:59:14;47.47;;;23.73;;
6017;SDS011;3037;51.068;13.780;2022-12-19T13:01:43;60.80;;;27.27;;
6017;SDS011;3037;51.068;13.780;2022-12-19T13:11:47;62.20;;;27.30;;
6017;SDS011;3037;51.068;13.780;2022-12-19T13:14:50;51.50;;;26.67;;
6017;SDS011;3037;51.068;13.780;2022-12-19T13:20:13;61.40;;;27.30;;
6017;SDS011;3037;51.068;13.780;2022-12-19T13:23:03;59.50;;;26.27;;
6017;SDS011;3037;51.068;13.780;2022-12-19T13:27:55;56.47;;;26.50;;
6017;SDS011;3037;51.068;13.780;2022-12-19T13:30:24;58.93;;;28.17;;
6017;SDS011;3037;51.068;13.780;2022-12-19T13:37:41;59.23;;;29.07;;
6017;SDS011;3037;51.068;13.780;2022-12-19T13:42:58;61.73;;;29.07;;
6017;SDS011;3037;51.068;13.780;2022-12-19T13:46:02;64.53;;;28.37;;
6017;SDS011;3037;51.068;13.780;2022-12-19T13:48:51;64.73;;;29.07;;
6017;SDS011;3037;51.068;13.780;2022-12-19T13:51:20;69.33;;;28.80;;
6017;SDS011;3037;51.068;13.780;2022-12-19T13:53:46;67.53;;;29.83;;
6017;SDS011;3037;51.068;13.780;2022-12-19T13:56:17;59.50;;;30.40;;
6017;SDS011;3037;51.068;13.780;2022-12-19T13:58:50;76.93;;;30.10;;
6017;SDS011;3037;51.068;13.780;2022-12-19T14:03:54;63.30;;;30.50;;
6017;SDS011;3037;51.068;13.780;2022-12-19T14:06:45;78.00;;;33.73;;
6017;SDS011;3037;51.068;13.780;2022-12-19T14:09:27;71.67;;;32.47;;
6017;SDS011;3037;51.068;13.780;2022-12-19T14:11:58;70.03;;;31.50;;
6017;SDS011;3037;51.068;13.780;2022-12-19T14:14:26;65.53;;;30.73;;
6017;SDS011;3037;51.068;13.780;2022-12-19T14:17:14;62.73;;;29.90;;
6017;SDS011;3037;51.068;13.780;2022-12-19T14:19:43;54.07;;;26.53;;
6017;SDS011;3037;51.068;13.780;2022-12-19T14:24:53;68.23;;;29.73;;
6017;SDS011;3037;51.068;13.780;2022-12-19T14:27:19;66.87;;;31.20;;
6017;SDS011;3037;51.068;13.780;2022-12-19T14:29:52;67.67;;;31.50;;
6017;SDS011;3037;51.068;13.780;2022-12-19T14:32:18;60.17;;;29.53;;
6017;SDS011;3037;51.068;13.780;2022-12-19T14:34:45;76.97;;;34.30;;
6017;SDS011;3037;51.068;13.780;2022-12-19T14:37:29;54.70;;;27.20;;
6017;SDS011;3037;51.068;13.780;2022-12-19T14:40:04;73.77;;;32.27;;
6017;SDS011;3037;51.068;13.780;2022-12-19T14:42:45;62.63;;;28.77;;
6017;SDS011;3037;51.068;13.780;2022-12-19T14:45:40;65.53;;;31.83;;
6017;SDS011;3037;51.068;13.780;2022-12-19T14:48:26;66.13;;;31.17;;
6017;SDS011;3037;51.068;13.780;2022-12-19T14:53:34;69.30;;;29.50;;
6017;SDS011;3037;51.068;13.780;2022-12-19T14:56:02;71.73;;;31.30;;
6017;SDS011;3037;51.068;13.780;2022-12-19T14:58:37;73.47;;;30.27;;
6017;SDS011;3037;51.068;13.780;2022-12-19T15:01:19;59.60;;;30.60;;
6017;SDS011;3037;51.068;13.780;2022-12-19T15:03:49;63.47;;;28.70;;
6017;SDS011;3037;51.068;13.780;2022-12-19T15:06:19;63.60;;;29.70;;
6017;SDS011;3037;51.068;13.780;2022-12-19T15:08:49;66.53;;;30.30;;
6017;SDS011;3037;51.068;13.780;2022-12-19T15:11:33;70.60;;;30.60;;
6017;SDS011;3037;51.068;13.780;2022-12-19T15:14:26;68.97;;;29.40;;
6017;SDS011;3037;51.068;13.780;2022-12-19T15:17:13;62.10;;;30.27;;
6017;SDS011;3037;51.068;13.780;2022-12-19T15:19:45;61.83;;;28.53;;
6017;SDS011;3037;51.068;13.780;2022-12-19T15:22:12;72.10;;;31.07;;
6017;SDS011;3037;51.068;13.780;2022-12-19T15:24:37;69.10;;;29.97;;
6017;SDS011;3037;51.068;13.780;2022-12-19T15:27:03;78.07;;;33.50;;
6017;SDS011;3037;51.068;13.780;2022-12-19T15:29:29;60.43;;;29.83;;
6017;SDS011;3037;51.068;13.780;2022-12-19T15:31:57;72.17;;;29.93;;
6017;SDS011;3037;51.068;13.780;2022-12-19T15:34:26;78.60;;;31.53;;
6017;SDS011;3037;51.068;13.780;2022-12-19T15:36:58;72.90;;;33.60;;
6017;SDS011;3037;51.068;13.780;2022-12-19T15:39:25;56.40;;;29.10;;
6017;SDS011;3037;51.068;13.780;2022-12-19T15:41:53;65.23;;;31.70;;
6017;SDS011;3037;51.068;13.780;2022-12-19T15:44:22;69.70;;;29.00;;
6017;SDS011;3037;51.068;13.780;2022-12-19T15:46:57;56.40;;;27.23;;
6017;SDS011;3037;51.068;13.780;2022-12-19T15:49:24;63.47;;;28.87;;
6017;SDS011;3037;51.068;13.780;2022-12-19T15:51:50;66.50;;;28.40;;
6017;SDS011;3037;51.068;13.780;2022-12-19T15:54:16;66.27;;;29.63;;
6017;SDS011;3037;51.068;13.780;2022-12-19T15:56:46;60.67;;;29.30;;
6017;SDS011;3037;51.068;13.780;2022-12-19T15:59:22;61.23;;;32.23;;
6017;SDS011;3037;51.068;13.780;2022-12-19T16:01:55;59.07;;;27.93;;
6017;SDS011;3037;51.068;13.780;2022-12-19T16:04:22;53.93;;;25.07;;
6017;SDS011;3037;51.068;13.780;2022-12-19T16:06:49;57.20;;;26.60;;
6017;SDS011;3037;51.068;13.780;2022-12-19T16:09:19;56.13;;;26.37;;
6017;SDS011;3037;51.068;13.780;2022-12-19T16:11:49;55.83;;;28.27;;
6017;SDS011;3037;51.068;13.780;2022-12-19T16:14:16;58.30;;;27.10;;
6017;SDS011;3037;51.068;13.780;2022-12-19T16:16:43;60.00;;;28.30;;
6017;SDS011;3037;51.068;13.780;2022-12-19T16:21:47;62.17;;;28.97;;
6017;SDS011;3037;51.068;13.780;2022-12-19T16:24:13;61.80;;;27.67;;
6017;SDS011;3037;51.068;13.780;2022-12-19T16:26:38;63.80;;;29.07;;
6017;SDS011;3037;51.068;13.780;2022-12-19T16:29:04;55.97;;;28.50;;
6017;SDS011;3037;51.068;13.780;2022-12-19T16:31:37;62.33;;;28.00;;
6017;SDS011;3037;51.068;13.780;2022-12-19T16:34:09;54.10;;;29.47;;
6017;SDS011;3037;51.068;13.780;2022-12-19T16:36:41;57.87;;;28.37;;
6017;SDS011;3037;51.068;13.780;2022-12-19T16:39:07;58.73;;;29.37;;
6017;SDS011;3037;51.068;13.780;2022-12-19T16:41:33;56.20;;;30.20;;
6017;SDS011;3037;51.068;13.780;2022-12-19T16:43:58;55.40;;;30.20;;
6017;SDS011;3037;51.068;13.780;2022-12-19T16:46:25;52.27;;;26.60;;
6017;SDS011;3037;51.068;13.780;2022-12-19T16:48:58;55.27;;;25.90;;
6017;SDS011;3037;51.068;13.780;2022-12-19T16:51:24;55.53;;;28.23;;
6017;SDS011;3037;51.068;13.780;2022-12-19T16:53:54;47.17;;;26.93;;